sensor_id;sensor_type;location;lat;lon;timestamp;P1;durP1;ratioP1;P2;durP2;ratioP2
68886;SDS011;55925;51.764;6.402;2023-09-30T00:01:00;15.00;;;4.25;;
68886;SDS011;55925;51.764;6.402;2023-09-30T00:03:26;15.43;;;4.63;;
68886;SDS011;55925;51.764;6.402;2023-09-30T00:05:53;16.42;;;4.95;;
68886;SDS011;55925;51.764;6.402;2023-09-30T00:08:19;13.27;;;3.55;;
68886;SDS011;55925;51.764;6.402;2023-09-30T00:10:45;12.40;;;3.22;;
68886;SDS011;55925;51.764;6.402;2023-09-30T00:13:11;11.93;;;3.78;;
68886;SDS011;55925;51.764;6.402;2023-09-30T00:15:38;12.90;;;4.18;;
68886;SDS011;55925;51.764;6.402;2023-09-30T00:18:04;12.15;;;3.80;;
68886;SDS011;55925;51.764;6.402;2023-09-30T00:20:30;8.93;;;3.25;;
68886;SDS011;55925;51.764;6.402;2023-09-30T00:22:56;14.35;;;4.53;;
68886;SDS011;55925;51.764;6.402;2023-09-30T00:25:23;10.07;;;3.50;;
68886;SDS011;55925;51.764;6.402;2023-09-30T00:27:49;10.68;;;3.78;;
68886;SDS011;55925;51.764;6.402;2023-09-30T00:30:15;27.33;;;4.47;;
68886;SDS011;55925;51.764;6.402;2023-09-30T00:32:42;11.63;;;3.95;;
68886;SDS011;55925;51.764;6.402;2023-09-30T00:35:08;13.25;;;4.03;;
68886;SDS011;55925;51.764;6.402;2023-09-30T00:37:36;14.02;;;3.80;;
68886;SDS011;55925;51.764;6.402;2023-09-30T00:40:02;11.80;;;3.72;;
68886;SDS011;55925;51.764;6.402;2023-09-30T00:42:28;14.35;;;4.93;;
68886;SDS011;55925;51.764;6.402;2023-09-30T00:44:54;12.90;;;3.83;;
68886;SDS011;55925;51.764;6.402;2023-09-30T00:47:20;15.50;;;3.90;;
68886;SDS011;55925;51.764;6.402;2023-09-30T00:49:46;20.85;;;4.78;;
68886;SDS011;55925;51.764;6.402;2023-09-30T00:52:12;12.68;;;4.35;;
68886;SDS011;55925;51.764;6.402;2023-09-30T00:54:38;16.02;;;4.75;;
68886;SDS011;55925;51.764;6.402;2023-09-30T00:57:05;10.05;;;4.05;;
68886;SDS011;55925;51.764;6.402;2023-09-30T00:59:31;10.40;;;4.10;;
68886;SDS011;55925;51.764;6.402;2023-09-30T01:01:58;11.82;;;4.53;;
68886;SDS011;55925;51.764;6.402;2023-09-30T01:04:26;12.15;;;4.18;;
68886;SDS011;55925;51.764;6.402;2023-09-30T01:06:52;11.77;;;3.88;;
68886;SDS011;55925;51.764;6.402;2023-09-30T01:09:19;11.98;;;4.03;;
68886;SDS011;55925;51.764;6.402;2023-09-30T01:11:46;11.77;;;3.80;;
68886;SDS011;55925;51.764;6.402;2023-09-30T01:14:25;14.40;;;3.65;;
68886;SDS011;55925;51.764;6.402;2023-09-30T01:16:53;11.32;;;4.32;;
68886;SDS011;55925;51.764;6.402;2023-09-30T01:19:19;11.10;;;4.90;;
68886;SDS011;55925;51.764;6.402;2023-09-30T01:21:45;13.13;;;4.75;;
68886;SDS011;55925;51.764;6.402;2023-09-30T01:24:14;13.50;;;4.75;;
68886;SDS011;55925;51.764;6.402;2023-09-30T01:26:40;11.88;;;4.90;;
68886;SDS011;55925;51.764;6.402;2023-09-30T01:29:09;11.80;;;5.07;;
68886;SDS011;55925;51.764;6.402;2023-09-30T01:31:38;12.15;;;4.93;;
68886;SDS011;55925;51.764;6.402;2023-09-30T01:34:04;13.57;;;4.53;;
68886;SDS011;55925;51.764;6.402;2023-09-30T01:36:31;13.68;;;4.35;;
68886;SDS011;55925;51.764;6.402;2023-09-30T01:38:57;14.75;;;4.57;;
68886;SDS011;55925;51.764;6.402;2023-09-30T01:41:23;10.80;;;4.65;;
68886;SDS011;55925;51.764;6.402;2023-09-30T01:43:49;12.38;;;5.28;;
68886;SDS011;55925;51.764;6.402;2023-09-30T01:46:15;13.68;;;5.10;;
68886;SDS011;55925;51.764;6.402;2023-09-30T01:48:41;11.07;;;4.68;;
68886;SDS011;55925;51.764;6.402;2023-09-30T01:51:08;12.40;;;5.43;;
68886;SDS011;55925;51.764;6.402;2023-09-30T01:53:34;13.23;;;4.80;;
68886;SDS011;55925;51.764;6.402;2023-09-30T01:56:00;14.38;;;7.03;;
68886;SDS011;55925;51.764;6.402;2023-09-30T01:58:27;19.23;;;6.07;;
68886;SDS011;55925;51.764;6.402;2023-09-30T02:00:53;17.05;;;5.28;;
68886;SDS011;55925;51.764;6.402;2023-09-30T02:03:19;19.42;;;6.28;;
68886;SDS011;55925;51.764;6.402;2023-09-30T02:05:46;15.13;;;6.05;;
68886;SDS011;55925;51.764;6.402;2023-09-30T02:08:12;11.60;;;5.07;;
68886;SDS011;55925;51.764;6.402;2023-09-30T02:10:38;12.23;;;5.05;;
68886;SDS011;55925;51.764;6.402;2023-09-30T02:13:05;14.05;;;5.88;;
68886;SDS011;55925;51.764;6.402;2023-09-30T02:15:32;14.68;;;5.75;;
68886;SDS011;55925;51.764;6.402;2023-09-30T02:17:58;16.10;;;6.53;;
68886;SDS011;55925;51.764;6.402;2023-09-30T02:20:25;13.85;;;5.80;;
68886;SDS011;55925;51.764;6.402;2023-09-30T02:22:55;13.48;;;6.03;;
68886;SDS011;55925;51.764;6.402;2023-09-30T02:25:21;14.02;;;6.25;;
68886;SDS011;55925;51.764;6.402;2023-09-30T02:27:47;17.05;;;6.35;;
68886;SDS011;55925;51.764;6.402;2023-09-30T02:30:14;14.40;;;5.60;;
68886;SDS011;55925;51.764;6.402;2023-09-30T02:32:41;18.08;;;6.53;;
68886;SDS011;55925;51.764;6.402;2023-09-30T02:35:08;15.35;;;6.43;;
68886;SDS011;55925;51.764;6.402;2023-09-30T02:37:40;14.52;;;6.10;;
68886;SDS011;55925;51.764;6.402;2023-09-30T02:40:06;21.05;;;6.75;;
68886;SDS011;55925;51.764;6.402;2023-09-30T02:42:34;20.08;;;6.65;;
68886;SDS011;55925;51.764;6.402;2023-09-30T02:45:01;16.90;;;5.85;;
68886;SDS011;55925;51.764;6.402;2023-09-30T02:47:27;17.27;;;6.40;;
68886;SDS011;55925;51.764;6.402;2023-09-30T02:49:53;13.82;;;6.97;;
68886;SDS011;55925;51.764;6.402;2023-09-30T02:52:19;16.73;;;7.00;;
68886;SDS011;55925;51.764;6.402;2023-09-30T02:54:46;17.23;;;6.47;;
68886;SDS011;55925;51.764;6.402;2023-09-30T02:57:12;13.65;;;6.78;;
68886;SDS011;55925;51.764;6.402;2023-09-30T02:59:38;15.68;;;6.93;;
68886;SDS011;55925;51.764;6.402;2023-09-30T03:02:05;15.93;;;7.53;;
68886;SDS011;55925;51.764;6.402;2023-09-30T03:04:31;18.17;;;7.15;;
68886;SDS011;55925;51.764;6.402;2023-09-30T03:06:58;14.35;;;7.25;;
68886;SDS011;55925;51.764;6.402;2023-09-30T03:09:24;16.55;;;7.40;;
68886;SDS011;55925;51.764;6.402;2023-09-30T03:11:51;16.35;;;6.93;;
68886;SDS011;55925;51.764;6.402;2023-09-30T03:14:17;20.90;;;8.55;;
68886;SDS011;55925;51.764;6.402;2023-09-30T03:16:43;14.77;;;7.47;;
68886;SDS011;55925;51.764;6.402;2023-09-30T03:19:09;17.08;;;8.13;;
68886;SDS011;55925;51.764;6.402;2023-09-30T03:21:36;16.98;;;8.10;;
68886;SDS011;55925;51.764;6.402;2023-09-30T03:24:03;17.70;;;8.63;;
68886;SDS011;55925;51.764;6.402;2023-09-30T03:26:29;18.35;;;8.18;;
68886;SDS011;55925;51.764;6.402;2023-09-30T03:28:55;26.13;;;9.98;;
68886;SDS011;55925;51.764;6.402;2023-09-30T03:31:22;18.70;;;7.82;;
68886;SDS011;55925;51.764;6.402;2023-09-30T03:33:49;21.15;;;8.57;;
68886;SDS011;55925;51.764;6.402;2023-09-30T03:36:18;17.02;;;7.80;;
68886;SDS011;55925;51.764;6.402;2023-09-30T03:38:45;15.43;;;7.55;;
68886;SDS011;55925;51.764;6.402;2023-09-30T03:41:11;14.50;;;7.88;;
68886;SDS011;55925;51.764;6.402;2023-09-30T03:43:38;17.75;;;8.15;;
68886;SDS011;55925;51.764;6.402;2023-09-30T03:46:09;15.73;;;7.25;;
68886;SDS011;55925;51.764;6.402;2023-09-30T03:48:37;23.23;;;7.65;;
68886;SDS011;55925;51.764;6.402;2023-09-30T03:51:13;17.63;;;8.20;;
68886;SDS011;55925;51.764;6.402;2023-09-30T03:53:42;17.65;;;7.95;;
68886;SDS011;55925;51.764;6.402;2023-09-30T03:56:09;18.63;;;8.02;;
68886;SDS011;55925;51.764;6.402;2023-09-30T03:58:42;19.00;;;7.70;;
68886;SDS011;55925;51.764;6.402;2023-09-30T04:01:08;15.40;;;7.88;;
68886;SDS011;55925;51.764;6.402;2023-09-30T04:03:45;17.13;;;6.85;;
68886;SDS011;55925;51.764;6.402;2023-09-30T04:06:11;18.02;;;8.10;;
68886;SDS011;55925;51.764;6.402;2023-09-30T04:08:37;17.60;;;7.00;;
68886;SDS011;55925;51.764;6.402;2023-09-30T04:11:03;16.90;;;8.35;;
68886;SDS011;55925;51.764;6.402;2023-09-30T04:13:29;18.88;;;7.57;;
68886;SDS011;55925;51.764;6.402;2023-09-30T04:15:55;19.98;;;8.07;;
68886;SDS011;55925;51.764;6.402;2023-09-30T04:18:23;19.10;;;8.77;;
68886;SDS011;55925;51.764;6.402;2023-09-30T04:20:51;20.45;;;7.63;;
68886;SDS011;55925;51.764;6.402;2023-09-30T04:23:17;22.35;;;9.02;;
68886;SDS011;55925;51.764;6.402;2023-09-30T04:25:45;16.58;;;8.73;;
68886;SDS011;55925;51.764;6.402;2023-09-30T04:28:11;20.35;;;9.13;;
68886;SDS011;55925;51.764;6.402;2023-09-30T04:30:38;21.30;;;9.02;;
68886;SDS011;55925;51.764;6.402;2023-09-30T04:33:04;21.35;;;9.40;;
68886;SDS011;55925;51.764;6.402;2023-09-30T04:35:31;17.92;;;8.15;;
68886;SDS011;55925;51.764;6.402;2023-09-30T04:37:57;19.38;;;8.75;;
68886;SDS011;55925;51.764;6.402;2023-09-30T04:40:29;21.15;;;8.60;;
68886;SDS011;55925;51.764;6.402;2023-09-30T04:42:57;19.67;;;8.40;;
68886;SDS011;55925;51.764;6.402;2023-09-30T04:45:24;18.60;;;8.90;;
68886;SDS011;55925;51.764;6.402;2023-09-30T04:47:51;23.50;;;9.40;;
68886;SDS011;55925;51.764;6.402;2023-09-30T04:50:17;22.10;;;9.65;;
68886;SDS011;55925;51.764;6.402;2023-09-30T04:52:46;22.80;;;9.07;;
68886;SDS011;55925;51.764;6.402;2023-09-30T04:55:12;21.50;;;9.88;;
68886;SDS011;55925;51.764;6.402;2023-09-30T04:57:41;20.55;;;8.20;;
68886;SDS011;55925;51.764;6.402;2023-09-30T05:00:09;17.63;;;7.53;;
68886;SDS011;55925;51.764;6.402;2023-09-30T05:02:36;21.48;;;9.45;;
68886;SDS011;55925;51.764;6.402;2023-09-30T05:05:02;18.58;;;8.40;;
68886;SDS011;55925;51.764;6.402;2023-09-30T05:07:31;20.42;;;9.30;;
68886;SDS011;55925;51.764;6.402;2023-09-30T05:09:57;17.83;;;8.05;;
68886;SDS011;55925;51.764;6.402;2023-09-30T05:12:24;21.65;;;8.02;;
68886;SDS011;55925;51.764;6.402;2023-09-30T05:14:50;16.70;;;8.20;;
68886;SDS011;55925;51.764;6.402;2023-09-30T05:17:17;18.02;;;8.63;;
68886;SDS011;55925;51.764;6.402;2023-09-30T05:19:43;16.15;;;8.15;;
68886;SDS011;55925;51.764;6.402;2023-09-30T05:22:09;17.25;;;8.77;;
68886;SDS011;55925;51.764;6.402;2023-09-30T05:24:35;18.63;;;8.90;;
68886;SDS011;55925;51.764;6.402;2023-09-30T05:27:01;19.90;;;8.93;;
68886;SDS011;55925;51.764;6.402;2023-09-30T05:29:27;25.30;;;10.23;;
68886;SDS011;55925;51.764;6.402;2023-09-30T05:31:53;19.15;;;8.13;;
68886;SDS011;55925;51.764;6.402;2023-09-30T05:34:19;19.33;;;8.75;;
68886;SDS011;55925;51.764;6.402;2023-09-30T05:36:45;20.30;;;9.27;;
68886;SDS011;55925;51.764;6.402;2023-09-30T05:39:11;22.75;;;9.40;;
68886;SDS011;55925;51.764;6.402;2023-09-30T05:41:38;17.55;;;8.98;;
68886;SDS011;55925;51.764;6.402;2023-09-30T05:44:04;21.85;;;9.70;;
68886;SDS011;55925;51.764;6.402;2023-09-30T05:46:30;19.05;;;8.57;;
68886;SDS011;55925;51.764;6.402;2023-09-30T05:48:56;19.88;;;8.38;;
68886;SDS011;55925;51.764;6.402;2023-09-30T05:51:22;17.58;;;8.48;;
68886;SDS011;55925;51.764;6.402;2023-09-30T05:53:48;16.70;;;8.38;;
68886;SDS011;55925;51.764;6.402;2023-09-30T05:56:14;18.58;;;9.18;;
68886;SDS011;55925;51.764;6.402;2023-09-30T05:58:41;19.92;;;9.38;;
68886;SDS011;55925;51.764;6.402;2023-09-30T06:01:07;21.73;;;8.07;;
68886;SDS011;55925;51.764;6.402;2023-09-30T06:03:36;16.75;;;8.57;;
68886;SDS011;55925;51.764;6.402;2023-09-30T06:06:13;18.50;;;8.07;;
68886;SDS011;55925;51.764;6.402;2023-09-30T06:08:41;19.77;;;8.75;;
68886;SDS011;55925;51.764;6.402;2023-09-30T06:11:07;22.88;;;9.52;;
68886;SDS011;55925;51.764;6.402;2023-09-30T06:13:33;18.98;;;9.48;;
68886;SDS011;55925;51.764;6.402;2023-09-30T06:15:59;19.20;;;8.95;;
68886;SDS011;55925;51.764;6.402;2023-09-30T06:18:27;20.27;;;9.30;;
68886;SDS011;55925;51.764;6.402;2023-09-30T06:20:53;18.58;;;8.07;;
68886;SDS011;55925;51.764;6.402;2023-09-30T06:23:19;21.80;;;9.57;;
68886;SDS011;55925;51.764;6.402;2023-09-30T06:25:45;19.13;;;9.70;;
68886;SDS011;55925;51.764;6.402;2023-09-30T06:28:11;23.15;;;10.13;;
68886;SDS011;55925;51.764;6.402;2023-09-30T06:30:39;20.90;;;10.55;;
68886;SDS011;55925;51.764;6.402;2023-09-30T06:33:07;20.75;;;10.18;;
68886;SDS011;55925;51.764;6.402;2023-09-30T06:35:36;20.60;;;10.00;;
68886;SDS011;55925;51.764;6.402;2023-09-30T06:38:14;23.20;;;10.23;;
68886;SDS011;55925;51.764;6.402;2023-09-30T06:40:40;20.77;;;10.32;;
68886;SDS011;55925;51.764;6.402;2023-09-30T06:43:07;22.30;;;10.10;;
68886;SDS011;55925;51.764;6.402;2023-09-30T06:45:33;22.60;;;10.38;;
68886;SDS011;55925;51.764;6.402;2023-09-30T06:48:04;20.05;;;10.23;;
68886;SDS011;55925;51.764;6.402;2023-09-30T06:50:30;21.10;;;9.10;;
68886;SDS011;55925;51.764;6.402;2023-09-30T06:52:56;20.30;;;10.40;;
68886;SDS011;55925;51.764;6.402;2023-09-30T06:55:23;22.33;;;8.73;;
68886;SDS011;55925;51.764;6.402;2023-09-30T06:57:50;21.08;;;9.93;;
68886;SDS011;55925;51.764;6.402;2023-09-30T07:00:16;24.55;;;10.13;;
68886;SDS011;55925;51.764;6.402;2023-09-30T07:02:42;22.27;;;10.35;;
68886;SDS011;55925;51.764;6.402;2023-09-30T07:05:12;21.98;;;9.50;;
68886;SDS011;55925;51.764;6.402;2023-09-30T07:07:39;19.55;;;9.65;;
68886;SDS011;55925;51.764;6.402;2023-09-30T07:10:05;16.77;;;8.85;;
68886;SDS011;55925;51.764;6.402;2023-09-30T07:12:32;23.63;;;9.80;;
68886;SDS011;55925;51.764;6.402;2023-09-30T07:15:00;20.20;;;9.02;;
68886;SDS011;55925;51.764;6.402;2023-09-30T07:17:27;15.43;;;8.23;;
68886;SDS011;55925;51.764;6.402;2023-09-30T07:19:53;15.48;;;7.60;;
68886;SDS011;55925;51.764;6.402;2023-09-30T07:22:19;16.80;;;7.93;;
68886;SDS011;55925;51.764;6.402;2023-09-30T07:24:45;16.55;;;7.05;;
68886;SDS011;55925;51.764;6.402;2023-09-30T07:27:11;18.05;;;8.13;;
68886;SDS011;55925;51.764;6.402;2023-09-30T07:29:37;15.88;;;7.40;;
68886;SDS011;55925;51.764;6.402;2023-09-30T07:32:03;14.10;;;7.10;;
68886;SDS011;55925;51.764;6.402;2023-09-30T07:34:29;16.38;;;7.35;;
68886;SDS011;55925;51.764;6.402;2023-09-30T07:36:55;13.77;;;6.63;;
68886;SDS011;55925;51.764;6.402;2023-09-30T07:39:21;17.90;;;7.93;;
68886;SDS011;55925;51.764;6.402;2023-09-30T07:41:47;15.88;;;7.90;;
68886;SDS011;55925;51.764;6.402;2023-09-30T07:44:13;17.92;;;8.45;;
68886;SDS011;55925;51.764;6.402;2023-09-30T07:46:40;17.38;;;8.10;;
68886;SDS011;55925;51.764;6.402;2023-09-30T07:49:07;16.42;;;7.53;;
68886;SDS011;55925;51.764;6.402;2023-09-30T07:51:33;16.33;;;6.95;;
68886;SDS011;55925;51.764;6.402;2023-09-30T07:54:00;15.27;;;7.53;;
68886;SDS011;55925;51.764;6.402;2023-09-30T07:56:26;14.75;;;7.22;;
68886;SDS011;55925;51.764;6.402;2023-09-30T07:58:52;14.43;;;7.47;;
68886;SDS011;55925;51.764;6.402;2023-09-30T08:01:18;17.10;;;8.40;;
68886;SDS011;55925;51.764;6.402;2023-09-30T08:03:44;13.18;;;6.38;;
68886;SDS011;55925;51.764;6.402;2023-09-30T08:06:11;13.07;;;6.30;;
68886;SDS011;55925;51.764;6.402;2023-09-30T08:08:37;14.43;;;6.55;;
68886;SDS011;55925;51.764;6.402;2023-09-30T08:11:03;11.77;;;6.82;;
68886;SDS011;55925;51.764;6.402;2023-09-30T08:13:31;12.95;;;6.55;;
68886;SDS011;55925;51.764;6.402;2023-09-30T08:15:57;13.80;;;7.40;;
68886;SDS011;55925;51.764;6.402;2023-09-30T08:18:23;14.00;;;6.43;;
68886;SDS011;55925;51.764;6.402;2023-09-30T08:20:49;13.93;;;6.75;;
68886;SDS011;55925;51.764;6.402;2023-09-30T08:23:15;13.38;;;6.65;;
68886;SDS011;55925;51.764;6.402;2023-09-30T08:25:41;13.65;;;6.05;;
68886;SDS011;55925;51.764;6.402;2023-09-30T08:28:07;16.67;;;7.57;;
68886;SDS011;55925;51.764;6.402;2023-09-30T08:30:34;13.73;;;6.18;;
68886;SDS011;55925;51.764;6.402;2023-09-30T08:33:00;12.07;;;6.03;;
68886;SDS011;55925;51.764;6.402;2023-09-30T08:35:28;13.77;;;6.93;;
68886;SDS011;55925;51.764;6.402;2023-09-30T08:37:53;18.15;;;6.50;;
68886;SDS011;55925;51.764;6.402;2023-09-30T08:40:20;13.65;;;7.28;;
68886;SDS011;55925;51.764;6.402;2023-09-30T08:42:48;14.85;;;8.27;;
68886;SDS011;55925;51.764;6.402;2023-09-30T08:45:16;14.40;;;6.45;;
68886;SDS011;55925;51.764;6.402;2023-09-30T08:47:42;14.63;;;6.10;;
68886;SDS011;55925;51.764;6.402;2023-09-30T08:50:08;15.57;;;7.47;;
68886;SDS011;55925;51.764;6.402;2023-09-30T08:52:36;13.43;;;6.85;;
68886;SDS011;55925;51.764;6.402;2023-09-30T08:55:02;12.65;;;6.00;;
68886;SDS011;55925;51.764;6.402;2023-09-30T08:57:28;12.50;;;5.85;;
68886;SDS011;55925;51.764;6.402;2023-09-30T08:59:55;14.68;;;6.38;;
68886;SDS011;55925;51.764;6.402;2023-09-30T09:02:21;14.25;;;6.95;;
68886;SDS011;55925;51.764;6.402;2023-09-30T09:04:47;14.82;;;6.43;;
68886;SDS011;55925;51.764;6.402;2023-09-30T09:07:14;14.30;;;6.43;;
68886;SDS011;55925;51.764;6.402;2023-09-30T09:09:40;11.73;;;6.13;;
68886;SDS011;55925;51.764;6.402;2023-09-30T09:12:06;16.92;;;6.82;;
68886;SDS011;55925;51.764;6.402;2023-09-30T09:14:44;15.63;;;6.20;;
68886;SDS011;55925;51.764;6.402;2023-09-30T09:17:11;14.18;;;5.90;;
68886;SDS011;55925;51.764;6.402;2023-09-30T09:19:38;15.35;;;6.00;;
68886;SDS011;55925;51.764;6.402;2023-09-30T09:22:04;12.10;;;5.65;;
68886;SDS011;55925;51.764;6.402;2023-09-30T09:27:31;11.27;;;5.10;;
68886;SDS011;55925;51.764;6.402;2023-09-30T09:29:50;10.18;;;5.18;;
68886;SDS011;55925;51.764;6.402;2023-09-30T09:32:16;11.93;;;5.35;;
68886;SDS011;55925;51.764;6.402;2023-09-30T09:34:43;11.63;;;5.32;;
68886;SDS011;55925;51.764;6.402;2023-09-30T09:37:19;12.20;;;5.40;;
68886;SDS011;55925;51.764;6.402;2023-09-30T09:39:51;11.15;;;5.50;;
68886;SDS011;55925;51.764;6.402;2023-09-30T09:42:24;11.13;;;4.93;;
68886;SDS011;55925;51.764;6.402;2023-09-30T09:44:51;11.13;;;4.93;;
68886;SDS011;55925;51.764;6.402;2023-09-30T09:47:20;7.72;;;4.03;;
68886;SDS011;55925;51.764;6.402;2023-09-30T09:49:47;12.30;;;4.80;;
68886;SDS011;55925;51.764;6.402;2023-09-30T09:52:13;10.48;;;4.85;;
68886;SDS011;55925;51.764;6.402;2023-09-30T09:54:41;10.18;;;4.68;;
68886;SDS011;55925;51.764;6.402;2023-09-30T09:57:09;9.15;;;4.07;;
68886;SDS011;55925;51.764;6.402;2023-09-30T09:59:38;10.98;;;4.97;;
68886;SDS011;55925;51.764;6.402;2023-09-30T10:02:11;11.30;;;4.85;;
68886;SDS011;55925;51.764;6.402;2023-09-30T10:04:44;8.10;;;3.72;;
68886;SDS011;55925;51.764;6.402;2023-09-30T10:07:11;14.93;;;4.60;;
68886;SDS011;55925;51.764;6.402;2023-09-30T10:09:39;10.18;;;4.60;;
68886;SDS011;55925;51.764;6.402;2023-09-30T10:12:07;13.52;;;4.70;;
68886;SDS011;55925;51.764;6.402;2023-09-30T10:14:34;10.77;;;4.45;;
68886;SDS011;55925;51.764;6.402;2023-09-30T10:17:03;10.32;;;4.28;;
68886;SDS011;55925;51.764;6.402;2023-09-30T10:19:29;10.82;;;4.72;;
68886;SDS011;55925;51.764;6.402;2023-09-30T10:24:45;10.85;;;4.57;;
68886;SDS011;55925;51.764;6.402;2023-09-30T10:35:18;8.35;;;4.30;;
68886;SDS011;55925;51.764;6.402;2023-09-30T10:37:45;11.00;;;4.70;;
68886;SDS011;55925;51.764;6.402;2023-09-30T10:40:27;9.95;;;5.55;;
68886;SDS011;55925;51.764;6.402;2023-09-30T10:42:53;8.63;;;3.80;;
68886;SDS011;55925;51.764;6.402;2023-09-30T10:50:58;10.02;;;3.67;;
68886;SDS011;55925;51.764;6.402;2023-09-30T10:55:59;9.98;;;4.30;;
68886;SDS011;55925;51.764;6.402;2023-09-30T11:01:31;17.08;;;7.63;;
68886;SDS011;55925;51.764;6.402;2023-09-30T11:04:02;11.80;;;4.32;;
68886;SDS011;55925;51.764;6.402;2023-09-30T11:06:29;10.93;;;4.18;;
68886;SDS011;55925;51.764;6.402;2023-09-30T11:08:57;7.88;;;3.20;;
68886;SDS011;55925;51.764;6.402;2023-09-30T11:11:36;10.32;;;4.25;;
68886;SDS011;55925;51.764;6.402;2023-09-30T11:14:02;9.88;;;4.18;;
68886;SDS011;55925;51.764;6.402;2023-09-30T11:16:39;13.95;;;5.32;;
68886;SDS011;55925;51.764;6.402;2023-09-30T11:19:05;10.02;;;4.78;;
68886;SDS011;55925;51.764;6.402;2023-09-30T11:21:33;7.47;;;3.13;;
68886;SDS011;55925;51.764;6.402;2023-09-30T11:24:00;9.95;;;3.17;;
68886;SDS011;55925;51.764;6.402;2023-09-30T11:26:32;8.30;;;3.13;;
68886;SDS011;55925;51.764;6.402;2023-09-30T11:29:05;13.93;;;4.72;;
68886;SDS011;55925;51.764;6.402;2023-09-30T11:31:32;9.48;;;4.60;;
68886;SDS011;55925;51.764;6.402;2023-09-30T11:33:59;9.10;;;4.22;;
68886;SDS011;55925;51.764;6.402;2023-09-30T11:36:29;7.97;;;3.30;;
68886;SDS011;55925;51.764;6.402;2023-09-30T11:38:58;10.05;;;3.25;;
68886;SDS011;55925;51.764;6.402;2023-09-30T11:46:30;7.70;;;2.88;;
68886;SDS011;55925;51.764;6.402;2023-09-30T11:48:59;6.20;;;2.40;;
68886;SDS011;55925;51.764;6.402;2023-09-30T11:51:26;8.23;;;3.10;;
68886;SDS011;55925;51.764;6.402;2023-09-30T11:53:52;8.73;;;3.25;;
68886;SDS011;55925;51.764;6.402;2023-09-30T11:56:19;6.55;;;2.42;;
68886;SDS011;55925;51.764;6.402;2023-09-30T11:58:47;6.80;;;2.67;;
68886;SDS011;55925;51.764;6.402;2023-09-30T12:01:14;8.20;;;2.80;;
68886;SDS011;55925;51.764;6.402;2023-09-30T12:03:41;8.10;;;2.75;;
68886;SDS011;55925;51.764;6.402;2023-09-30T12:06:07;8.48;;;2.75;;
68886;SDS011;55925;51.764;6.402;2023-09-30T12:08:38;6.93;;;3.13;;
68886;SDS011;55925;51.764;6.402;2023-09-30T12:11:04;7.40;;;2.50;;
68886;SDS011;55925;51.764;6.402;2023-09-30T12:13:30;6.85;;;2.92;;
68886;SDS011;55925;51.764;6.402;2023-09-30T12:15:56;8.02;;;3.80;;
68886;SDS011;55925;51.764;6.402;2023-09-30T12:18:23;10.05;;;3.83;;
68886;SDS011;55925;51.764;6.402;2023-09-30T12:20:49;8.98;;;3.75;;
68886;SDS011;55925;51.764;6.402;2023-09-30T12:23:17;11.77;;;3.45;;
68886;SDS011;55925;51.764;6.402;2023-09-30T12:25:43;9.00;;;2.45;;
68886;SDS011;55925;51.764;6.402;2023-09-30T12:28:09;10.70;;;3.10;;
68886;SDS011;55925;51.764;6.402;2023-09-30T12:30:35;8.85;;;2.60;;
68886;SDS011;55925;51.764;6.402;2023-09-30T12:33:01;8.45;;;2.42;;
68886;SDS011;55925;51.764;6.402;2023-09-30T12:35:27;11.23;;;2.70;;
68886;SDS011;55925;51.764;6.402;2023-09-30T12:37:53;6.72;;;2.58;;
68886;SDS011;55925;51.764;6.402;2023-09-30T12:40:19;10.32;;;2.90;;
68886;SDS011;55925;51.764;6.402;2023-09-30T12:42:45;9.15;;;2.50;;
68886;SDS011;55925;51.764;6.402;2023-09-30T12:45:12;7.93;;;2.50;;
68886;SDS011;55925;51.764;6.402;2023-09-30T12:47:38;7.60;;;2.90;;
68886;SDS011;55925;51.764;6.402;2023-09-30T12:50:04;8.00;;;2.97;;
68886;SDS011;55925;51.764;6.402;2023-09-30T12:52:34;8.70;;;2.78;;
68886;SDS011;55925;51.764;6.402;2023-09-30T12:55:00;8.07;;;3.05;;
68886;SDS011;55925;51.764;6.402;2023-09-30T12:57:26;7.10;;;2.60;;
68886;SDS011;55925;51.764;6.402;2023-09-30T12:59:52;5.75;;;2.35;;
68886;SDS011;55925;51.764;6.402;2023-09-30T13:02:18;6.53;;;2.40;;
68886;SDS011;55925;51.764;6.402;2023-09-30T13:04:44;6.63;;;2.75;;
68886;SDS011;55925;51.764;6.402;2023-09-30T13:07:10;7.57;;;3.20;;
68886;SDS011;55925;51.764;6.402;2023-09-30T13:09:38;7.32;;;2.65;;
68886;SDS011;55925;51.764;6.402;2023-09-30T13:12:04;7.05;;;2.58;;
68886;SDS011;55925;51.764;6.402;2023-09-30T13:14:30;7.75;;;3.22;;
68886;SDS011;55925;51.764;6.402;2023-09-30T13:16:56;8.30;;;3.15;;
68886;SDS011;55925;51.764;6.402;2023-09-30T13:19:22;10.60;;;3.53;;
68886;SDS011;55925;51.764;6.402;2023-09-30T13:21:49;7.65;;;2.70;;
68886;SDS011;55925;51.764;6.402;2023-09-30T13:24:16;8.95;;;2.97;;
68886;SDS011;55925;51.764;6.402;2023-09-30T13:26:42;8.30;;;3.08;;
68886;SDS011;55925;51.764;6.402;2023-09-30T13:29:08;9.95;;;3.25;;
68886;SDS011;55925;51.764;6.402;2023-09-30T13:31:35;6.15;;;2.90;;
68886;SDS011;55925;51.764;6.402;2023-09-30T13:34:04;6.32;;;2.80;;
68886;SDS011;55925;51.764;6.402;2023-09-30T13:36:30;8.50;;;3.03;;
68886;SDS011;55925;51.764;6.402;2023-09-30T13:38:56;7.22;;;2.90;;
68886;SDS011;55925;51.764;6.402;2023-09-30T13:41:22;7.53;;;2.70;;
68886;SDS011;55925;51.764;6.402;2023-09-30T13:43:48;9.35;;;3.40;;
68886;SDS011;55925;51.764;6.402;2023-09-30T13:46:14;6.47;;;2.30;;
68886;SDS011;55925;51.764;6.402;2023-09-30T13:48:41;7.45;;;2.72;;
68886;SDS011;55925;51.764;6.402;2023-09-30T13:51:07;7.68;;;2.65;;
68886;SDS011;55925;51.764;6.402;2023-09-30T13:53:34;7.78;;;2.78;;
68886;SDS011;55925;51.764;6.402;2023-09-30T13:56:00;7.90;;;2.30;;
68886;SDS011;55925;51.764;6.402;2023-09-30T13:58:28;7.43;;;2.70;;
68886;SDS011;55925;51.764;6.402;2023-09-30T14:00:54;8.25;;;2.90;;
68886;SDS011;55925;51.764;6.402;2023-09-30T14:03:23;6.00;;;2.72;;
68886;SDS011;55925;51.764;6.402;2023-09-30T14:05:49;5.75;;;2.53;;
68886;SDS011;55925;51.764;6.402;2023-09-30T14:08:15;9.13;;;3.38;;
68886;SDS011;55925;51.764;6.402;2023-09-30T14:10:42;8.85;;;2.92;;
68886;SDS011;55925;51.764;6.402;2023-09-30T14:13:11;7.97;;;2.67;;
68886;SDS011;55925;51.764;6.402;2023-09-30T14:15:37;7.03;;;2.40;;
68886;SDS011;55925;51.764;6.402;2023-09-30T14:18:03;7.15;;;2.40;;
68886;SDS011;55925;51.764;6.402;2023-09-30T14:20:29;7.32;;;2.38;;
68886;SDS011;55925;51.764;6.402;2023-09-30T14:22:55;7.35;;;3.00;;
68886;SDS011;55925;51.764;6.402;2023-09-30T14:25:21;7.75;;;3.20;;
68886;SDS011;55925;51.764;6.402;2023-09-30T14:27:48;11.10;;;3.20;;
68886;SDS011;55925;51.764;6.402;2023-09-30T14:30:14;7.30;;;2.97;;
68886;SDS011;55925;51.764;6.402;2023-09-30T14:32:41;9.02;;;2.80;;
68886;SDS011;55925;51.764;6.402;2023-09-30T14:35:08;7.50;;;2.60;;
68886;SDS011;55925;51.764;6.402;2023-09-30T14:37:35;8.73;;;2.42;;
68886;SDS011;55925;51.764;6.402;2023-09-30T14:40:01;6.10;;;2.50;;
68886;SDS011;55925;51.764;6.402;2023-09-30T14:42:30;9.10;;;2.67;;
68886;SDS011;55925;51.764;6.402;2023-09-30T14:44:56;6.75;;;2.67;;
68886;SDS011;55925;51.764;6.402;2023-09-30T14:47:22;7.38;;;2.20;;
68886;SDS011;55925;51.764;6.402;2023-09-30T14:49:48;7.38;;;2.38;;
68886;SDS011;55925;51.764;6.402;2023-09-30T14:52:15;7.82;;;3.00;;
68886;SDS011;55925;51.764;6.402;2023-09-30T14:54:41;6.10;;;2.40;;
68886;SDS011;55925;51.764;6.402;2023-09-30T14:57:07;9.07;;;2.67;;
68886;SDS011;55925;51.764;6.402;2023-09-30T14:59:34;8.70;;;2.65;;
68886;SDS011;55925;51.764;6.402;2023-09-30T15:02:01;7.05;;;2.65;;
68886;SDS011;55925;51.764;6.402;2023-09-30T15:04:27;7.07;;;2.67;;
68886;SDS011;55925;51.764;6.402;2023-09-30T15:06:53;10.23;;;3.30;;